Station NMXA2 - Nome, AK Image indicating link to RSS feed of recent meteorological observations for station NMXA2


Conditions at NMXA2 as of
(8:44 am AKDT)
1644 GMT on 07/13/2024:
     

Click on the graph icon in the table below to see a time series plot of the last five days of that observation.

5-day plot - Wind Direction Wind Direction (WDIR):SSE ( 160 deg true )
5-day plot - Wind Speed Wind Speed (WSPD): 13 kts
5-day plot - Wind Gust Wind Gust (GST): 19 kts
5-day plot - Air Temperature Air Temperature (ATMP): 48.9 °F
5-day plot - Dew Point Dew Point (DEWP): 47.8 °F
5-day plot - Wind Chill Wind Chill (CHILL): 43.3 °F
5-day plot - Wind Speed at 10 Meters Wind Speed at 10 meters (WSPD10M): 14 kts
5-day plot - Wind Speed at 20 Meters Wind Speed at 20 meters (WSPD20M): 16 kts
5-day plot -  Wind Speed, Wind Gust and Atmospheric Pressure Combined plot of Wind Speed, Gust, and Air Pressure
Previous observations
TIME
(AKDT)
5-day plot - Wind Direction
WDIR
 
5-day plot - Wind Speed
WSPD
kts
5-day plot - Wind Gust
GST
kts
5-day plot - Wave Height
WVHT
ft
5-day plot - Dominant Wave Period
DPD
sec
5-day plot - Average Wave Period
APD
sec
5-day plot - Mean Wave Direction
MWD
 
5-day plot - Atmospheric Pressure
PRES
in
5-day plot - Pressure Tendency
PTDY
in
5-day plot - Air Temperature
ATMP
°F
5-day plot - Water Temperature
WTMP
°F
5-day plot - Dew Point
DEWP
°F
5-day plot - Salinity
SAL
psu
5-day plot - Visibility
VIS
nmi
5-day plot - Tide (above MLLW)
TIDE
ft
2024-07-13 08:34 am SE 14 17------ 49.6- 48.6---
2024-07-13 08:24 amESE 15 18------ 50.5- 49.1---
2024-07-13 08:14 am E 13 17------ 51.1- 49.6---
2024-07-13 08:04 am E 13 17------ 51.3- 49.6---
2024-07-13 07:54 am E 12 17------ 51.4- 49.6---
2024-07-13 07:44 am E 12 15------ 51.4- 49.6---
2024-07-13 07:34 am E 12 16------ 51.4- 49.8---
2024-07-13 07:23 am E 12 16------ 51.3- 49.5---
2024-07-13 07:14 am E 11 16------ 51.3- 49.6---
2024-07-13 07:04 am E 12 17------ 51.1- 49.5---
2024-07-13 06:54 am E 12 14------ 51.3- 49.6---
2024-07-13 06:43 am E 13 17------ 51.3- 49.6---
2024-07-13 06:33 am E 12 16------ 51.4- 49.8---
2024-07-13 06:24 am E 12 16------ 51.3- 49.8---
2024-07-13 06:13 am E 11 15------ 51.3- 49.8---
2024-07-13 06:04 am E 11 14------ 51.3- 49.6---
2024-07-13 05:53 am E 11 14------ 51.3- 49.6---
2024-07-13 05:44 am E 10 14------ 51.4- 49.8---
2024-07-13 05:33 am E 9 12------ 51.6- 50.0---
2024-07-13 05:23 am E 9 11------ 51.6- 50.0---
2024-07-13 05:13 am E 8 12------ 51.6- 50.2---
2024-07-13 05:03 am E 10 13------ 51.6- 50.2---
2024-07-13 04:53 am E 9 13------ 51.8- 50.4---
2024-07-13 04:44 am E 10 14------ 51.8- 50.4---
2024-07-13 04:34 am E 11 14------ 52.0- 50.5---
2024-07-13 04:24 am E 11 15------ 52.0- 50.5---
2024-07-13 04:14 am E 11 15------ 51.8- 50.4---
2024-07-13 04:04 am E 10 15------ 51.4- 50.0---
2024-07-13 03:54 am E 8 10------ 51.3- 49.6---
2024-07-13 03:43 amENE 9 11------ 51.3- 49.6---
2024-07-13 03:34 amENE 9 12------ 51.3- 49.6---
2024-07-13 03:23 amENE 11 13------ 51.4- 49.6---
2024-07-13 03:13 amENE 10 12------ 51.3- 49.6---
2024-07-13 03:03 amENE 10 13------ 51.4- 49.8---
2024-07-13 02:53 amENE 10 13------ 51.6- 50.0---
2024-07-13 02:43 amENE 10 13------ 51.8- 49.8---
2024-07-13 02:33 amENE 11 14------ 52.0- 50.0---
2024-07-13 02:23 amENE 11 13------ 52.0- 50.2---
2024-07-13 02:14 amENE 11 14------ 52.0- 50.0---
2024-07-13 02:04 amENE 11 14------ 52.0- 50.2---
2024-07-13 01:53 amENE 12 14------ 52.2- 50.2---
2024-07-13 01:44 amENE 12 14------ 52.2- 50.2---
2024-07-13 01:34 amENE 12 15------ 52.0- 50.0---
2024-07-13 01:24 amENE 12 17------ 51.8- 50.2---
2024-07-13 01:13 amENE 12 17------ 52.0- 50.4---
2024-07-13 01:04 amENE 11 17------ 51.8- 50.2---
2024-07-13 12:54 amENE 12 17------ 51.8- 50.2---
2024-07-13 12:34 amENE 12 16------ 51.8- 50.2---
2024-07-13 12:24 amENE 13 17------ 51.8- 50.2---
2024-07-13 12:14 amENE 13 19------ 51.6- 50.0---
2024-07-13 12:04 amENE 15 19------ 51.4- 50.0---
2024-07-12 11:54 pmENE 15 21------ 51.3- 49.8---
2024-07-12 11:44 pmENE 14 19------ 51.3- 49.6---
2024-07-12 11:34 pmENE 13 18------ 51.6- 49.5---
2024-07-12 11:23 pmENE 14 21------ 52.0- 49.5---
2024-07-12 11:14 pmENE 14 18------ 52.0- 49.6---
2024-07-12 11:03 pmENE 14 18------ 52.2- 49.8---
2024-07-12 10:53 pm E 15 20------ 52.0- 49.8---
2024-07-12 10:33 pmENE 16 19------ 52.3- 49.8---
2024-07-12 10:23 pmENE 15 19------ 52.3- 49.6---
2024-07-12 10:13 pmENE 16 21------ 52.3- 49.6---
2024-07-12 10:03 pmENE 15 20------ 52.3- 49.8---
2024-07-12 09:53 pmENE 15 19------ 52.3- 49.8---
2024-07-12 09:43 pmENE 16 21------ 52.3- 49.8---
2024-07-12 09:34 pmENE 18 23------ 52.5- 49.8---
2024-07-12 09:24 pmENE 18 24------ 52.7- 50.0---
2024-07-12 09:14 pmENE 16 21------ 52.9- 50.2---
2024-07-12 09:03 pmENE 19 25------ 53.1- 50.0---
2024-07-12 08:54 pmENE 19 25------ 53.1- 50.0---
2024-07-12 08:44 pmENE 19 24------ 53.1- 50.0---
2024-07-12 08:34 pmENE 18 23------ 53.1- 50.0---
2024-07-12 08:24 pmENE 18 24------ 53.1- 49.8---
2024-07-12 08:14 pmENE 18 23------ 52.9- 49.6---
2024-07-12 08:04 pmENE 20 25------ 52.7- 49.5---
2024-07-12 07:54 pmENE 18 25------ 52.7- 49.6---
2024-07-12 07:43 pmENE 19 25------ 52.5- 49.5---
2024-07-12 07:33 pmENE 20 25------ 52.7- 49.5---
2024-07-12 07:24 pmENE 20 26------ 52.9- 49.6---
2024-07-12 07:13 pmENE 20 28------ 52.9- 49.6---
2024-07-12 07:04 pmENE 23 32------ 52.7- 49.5---
2024-07-12 06:53 pmENE 21 27------ 53.4- 50.0---
2024-07-12 06:43 pmENE 21 30------ 53.4- 49.8---
2024-07-12 06:33 pmENE 22 31------ 53.6- 50.0---
2024-07-12 06:24 pmENE 23 32------ 53.4- 49.8---
2024-07-12 06:13 pmENE 22 28------ 53.8- 50.0---
2024-07-12 06:04 pmENE 21 27------ 54.0- 49.8---
2024-07-12 05:54 pmENE 20 27------ 54.0- 49.6---
2024-07-12 05:44 pmENE 22 31------ 54.0- 49.8---
2024-07-12 05:34 pmENE 19 26------ 53.8- 50.2---
2024-07-12 05:24 pmENE 21 27------ 53.6- 50.2---
2024-07-12 05:13 pmENE 22 28------ 53.6- 50.2---
2024-07-12 05:04 pmENE 22 29------ 53.2- 50.0---
2024-07-12 04:53 pmENE 23 29------ 53.4- 49.8---
2024-07-12 04:43 pm E 18 30------ 52.9- 50.4---
2024-07-12 04:34 pm E 16 23------ 53.1- 50.4---
2024-07-12 04:24 pmENE 19 23------ 53.2- 50.2---
2024-07-12 04:13 pmENE 20 25------ 53.2- 50.0---
2024-07-12 03:54 pm E 21 27------ 53.1- 49.8---
2024-07-12 03:43 pm E 22 29------ 52.7- 49.3---
2024-07-12 03:34 pm E 23 30------ 52.7- 49.1---
2024-07-12 03:23 pm E 24 32------ 52.7- 49.3---
2024-07-12 03:13 pm E 24 33------ 52.5- 49.3---
2024-07-12 03:04 pm E 25 35------ 52.3- 49.5---
2024-07-12 02:53 pm E 24 33------ 52.7- 49.8---
2024-07-12 02:44 pmENE 23 33------ 52.9- 50.0---
2024-07-12 02:34 pm E 19 25------ 52.3- 50.0---
2024-07-12 02:24 pm E 17 24------ 52.2- 49.8---
2024-07-12 02:14 pm E 19 27------ 52.3- 49.6---
2024-07-12 02:03 pm E 19 27------ 52.3- 49.8---
2024-07-12 01:54 pm E 19 28------ 52.3- 49.6---
2024-07-12 01:43 pm E 20 26------ 52.3- 49.6---
2024-07-12 01:34 pm E 19 25------ 52.3- 49.8---
2024-07-12 01:24 pm E 20 25------ 52.2- 49.6---
2024-07-12 01:13 pm E 19 25------ 52.2- 49.6---
2024-07-12 01:04 pm E 19 26------ 52.2- 49.6---
2024-07-12 12:53 pm E 20 26------ 52.0- 49.6---
2024-07-12 12:44 pm E 19 24------ 52.0- 49.6---
2024-07-12 12:33 pm E 20 25------ 52.2- 49.6---
2024-07-12 12:24 pm E 20 26------ 52.2- 49.6---
2024-07-12 12:13 pm E 20 26------ 52.3- 49.6---
2024-07-12 12:04 pm E 20 25------ 52.2- 49.6---
2024-07-12 11:54 am E 19 26------ 52.3- 49.8---
2024-07-12 11:44 am E 18 22------ 52.3- 49.8---
2024-07-12 11:34 amENE 16 22------ 52.3- 50.0---
2024-07-12 11:24 am E 17 24------ 52.5- 50.0---
2024-07-12 11:14 am E 19 24------ 52.5- 49.8---
2024-07-12 11:04 am E 18 23------ 52.5- 50.0---
2024-07-12 10:53 am E 19 23------ 52.7- 50.2---
2024-07-12 10:44 am E 18 25------ 53.1- 50.5---
2024-07-12 10:43 am E 18 25------ 53.1- 50.5---
2024-07-12 10:23 am E 15 21------ 53.1- 50.9---
2024-07-12 10:14 am E 14 18------ 52.7- 50.4---
2024-07-12 10:04 am E 16 20------ 52.9- 50.4---
2024-07-12 09:54 amENE 16 20------ 53.1- 50.5---
2024-07-12 09:43 amENE 15 20------ 53.1- 50.7---
2024-07-12 09:34 amENE 14 19------ 53.1- 50.9---
2024-07-12 09:24 amENE 14 21------ 53.1- 51.1---
2024-07-12 09:14 am NE 15 19------ 53.1- 51.1---
2024-07-12 09:04 am NE 14 20------ 52.7- 51.1---
2024-07-12 08:54 am NE 12 16------ 52.3- 50.7---
2024-07-12 08:44 amENE 10 13------ 51.8- 50.2---
2024-07-12 08:34 amENE 7 11------ 51.4- 50.0---
2024-07-12 08:24 amENE 6 8------ 51.3- 49.8---
2024-07-12 08:14 amENE 6 7------ 51.3- 49.8---
2024-07-12 07:54 amENE 6 8------ 51.3- 49.8---